KWVL/WVL METAR and TAF weather

Enter ICAO airport designator
Station Type Date Time Source
KWVL METAR 2019/12/08 23:56 UTC NOAA

KWVL 082356Z AUTO 20010G14KT 10SM SCT120 M01/M09 A3028 RMK AO2 SLP287 T10111089 10006 21022 58015 FZRANO


Station Type Date Time Source
KWVL Decoded METAR 2019/12/08 23:56 UTC NOAA

Waterville, Waterville Robert LaFleur Airport, ME, United States (KWVL) 44-32N 069-41W
Dec 08, 2019 - 06:56 PM EST / 2019.12.08 2356 UTC
Wind: from the SSW (200 degrees) at 12 MPH (10 KT) gusting to 16 MPH (14 KT):0
Visibility: 10 mile(s):0
Sky conditions: partly cloudy
Temperature: 30.0 F (-1.1 C)
Windchill: 19 F (-7 C):1
Dew Point: 16.0 F (-8.9 C)
Relative Humidity: 55%
Pressure (altimeter): 30.28 in. Hg (1025 hPa)
Pressure tendency: 0.04 inches (1.5 hPa) lower than three hours ago
ob: KWVL 082356Z AUTO 20010G14KT 10SM SCT120 M01/M09 A3028 RMK AO2 SLP287 T10111089 10006 21022 58015 FZRANO
cycle: 0

Station Type Date Time Source
KWVL TAF UTC NOAA

Error!

Example: see airport list